Flight Track Log - Related Links

Times and Time Zones

All times are in EDT time to prevent confusion due to time zone crossing. See the RPA3392 flight status page for this flight to view local times or setup timezone preferences in your user account.


Time Position Orientation Groundspeed Altitude Reporting Facility
EDT Latitude Longitude Course Direction KTS MPH feet Rate Location/Type
Wed 11:48:56 PM 38.8833 -77.0667 83° East 164 189 1,700  Level Potomac TRACON
Wed 11:50:00 PM 38.9906 -76.6283 67° East  Level FlightAware Approximate
Wed 11:50:42 PM 38.9678 -77.1561 321° Northwest 230 265 5,700  Level Washington Center
Wed 11:51:00 PM 39.0430 -76.4925 63° Northeast  Level FlightAware Approximate
Wed 11:51:43 PM 39.0369 -77.1256 19° North 222 255 9,000  Level Washington Center
Wed 11:52:00 PM 39.0988 -76.3584 61° Northeast  Level FlightAware Approximate
Wed 11:52:42 PM 39.0675 -77.0272 68° East 222 255 10,900  Level Washington Center
Wed 11:53:00 PM 39.1425 -76.2242 38° Northeast  Level FlightAware Approximate
Wed 11:53:42 PM 39.0814 -76.9019 82° East 255 293 13,000  Level Washington Center
Wed 11:54:00 PM 39.1639 -76.0778 83° East  Level FlightAware Approximate
Wed 11:54:44 PM 39.0953 -76.7711 82° East 323 372 15,000  Level Washington Center
Wed 11:55:41 PM 39.1069 -76.6375 84° East 356 410 15,100 513 Climbing Washington Center
Wed 11:56:41 PM 39.1206 -76.5011 83° East 379 436 16,000 1,388 Climbing Washington Center
Wed 11:57:42 PM 39.1361 -76.3622 82° East 386 444 17,900 1,488 Climbing Washington Center
Wed 11:58:42 PM 39.1494 -76.2206 83° East 391 450 19,000 958 Climbing Washington Center
Wed 11:59:41 PM 39.1731 -76.0628 79° East 397 457 19,800 1,140 Climbing Washington Center
Thu 12:00:43 AM 39.1900 -75.9183 81° East 402 463 21,300 1,574 Climbing Washington Center
Thu 12:01:43 AM 39.2592 -75.7953 54° Northeast 398 458 23,000 1,650 Climbing Washington Center
Thu 12:02:43 AM 39.3425 -75.6856 46° Northeast 410 472 24,600 1,525 Climbing Washington Center
Thu 12:03:41 AM 39.4322 -75.5728 44° Northeast 424 488 26,000 1,412 Climbing Washington Center
Thu 12:04:42 AM 39.5197 -75.4569 46° Northeast 435 501 27,400 1,190 Climbing Washington Center
Thu 12:05:42 AM 39.6069 -75.3436 45° Northeast 435 501 28,400 478 Climbing Washington Center
Thu 12:08:03 AM 39.8083 -75.0567 48° Northeast 451 519 29,000 180 Climbing New York Center
Thu 12:09:02 AM 39.8961 -74.9378 46° Northeast 451 519 29,000  Level New York Center
Thu 12:10:02 AM 39.9703 -74.8472 43° Northeast 451 519 29,000  Level New York Center
Thu 12:11:04 AM 40.0850 -74.7156 41° Northeast 451 519 29,000  Level New York Center
Thu 12:12:02 AM 40.1786 -74.6014 43° Northeast 456 525 29,000  Level New York Center
Thu 12:13:02 AM 40.2761 -74.4817 43° Northeast 463 533 29,000  Level New York Center
Thu 12:14:05 AM 40.3758 -74.3617 42° Northeast 469 540 29,000  Level New York Center
Thu 12:15:03 AM 40.4772 -74.2417 42° Northeast 475 547 29,000 -904 Level New York Center
Thu 12:16:51 AM 40.6533 -74.0267 43° Northeast 487 560 26,500 -1,714 Descending Boston Center
Thu 12:17:51 AM 40.7464 -73.9194 41° Northeast 467 537 24,200 -1,250 Descending Boston Center
Thu 12:18:51 AM 40.8394 -73.8064 43° Northeast 454 522 24,000 -300 Descending Boston Center
Thu 12:19:51 AM 40.9306 -73.6928 43° Northeast 449 517 23,600 -500 Descending Boston Center
Thu 12:20:51 AM 41.0397 -73.6206 27° Northeast 444 511 23,000 -300 Descending Boston Center
Thu 12:21:51 AM 41.1644 -73.6283 357° North 413 475 23,000 -700 Level Boston Center
Thu 12:22:51 AM 41.2872 -73.6444 354° North 426 490 21,600 -1,500 Descending Boston Center
Thu 12:23:51 AM 41.4103 -73.6550 356° North 436 502 20,000 -800 Descending Boston Center
Thu 12:24:51 AM 41.5331 -73.6686 355° North 441 507 20,000 -800 Level Boston Center
Thu 12:25:51 AM 41.6494 -73.6819 355° North 436 502 18,400 -1,850 Descending Boston Center
Thu 12:26:51 AM 41.7558 -73.6925 356° North 431 496 16,300 -2,250 Descending Boston Center
Thu 12:27:51 AM 41.8806 -73.7089 354° North 411 473 13,900 -2,291 Descending Boston Center
Thu 12:28:41 AM 41.9700 -73.7189 355° North 398 458 12,100 -1,450 Descending Boston Center
Thu 12:29:51 AM 42.0950 -73.7300 356° North 399 459 11,000 -508 Descending Boston Center
Thu 12:30:51 AM 42.2011 -73.7433 355° North 385 443 11,000 -150 Level Boston Center
Thu 12:31:51 AM 42.3014 -73.7314 North 372 428 10,700 -435 Descending Boston Center
Thu 12:32:55 AM 42.3953 -73.7136 North 313 360 10,100 -1,248 Descending Boston Center
Thu 12:33:56 AM 42.4892 -73.6986 North 318 366 8,100 -1,736 Descending Boston Center
Thu 12:34:56 AM 42.5750 -73.6806 North 313 360 6,600 -1,636 Descending Boston Center
Thu 12:35:57 AM 42.6586 -73.6625 North 299 344 4,800 -1,313 Descending Boston Center
Thu 12:37:04 AM 42.7439 -73.6586 North 269 310 3,800 -609 Descending Boston Center
Thu 12:38:05 AM 42.8106 -73.6600 359° North 212 244 3,500 -149 Descending Boston Center
Thu 12:39:05 AM 42.8689 -73.6753 349° North 208 239 3,500 -397 Level Boston Center
Thu 12:40:06 AM 42.9144 -73.7072 333° Northwest 189 217 2,700 -783 Descending Boston Center
Thu 12:41:00 AM 42.9136 -73.7639 269° West 155 178 2,000 -313 Descending Boston Center
Thu 12:42:01 AM 42.8758 -73.7972 213° Southwest 159 183 2,100 98 Climbing Boston Center

Login

Don't have an account? Register now (free) for customized features, flight alerts, and more!